sensor_id;sensor_type;location;lat;lon;timestamp;P1;durP1;ratioP1;P2;durP2;ratioP2
47617;SDS011;33336;36.728;-4.414;2023-05-07T00:04:12;4.22;;;1.42;;
47617;SDS011;33336;36.728;-4.414;2023-05-07T00:09:16;4.10;;;1.08;;
47617;SDS011;33336;36.728;-4.414;2023-05-07T00:14:20;5.32;;;1.55;;
47617;SDS011;33336;36.728;-4.414;2023-05-07T00:19:24;5.32;;;1.73;;
47617;SDS011;33336;36.728;-4.414;2023-05-07T00:24:27;5.43;;;1.40;;
47617;SDS011;33336;36.728;-4.414;2023-05-07T00:29:32;7.28;;;1.17;;
47617;SDS011;33336;36.728;-4.414;2023-05-07T00:34:35;4.95;;;1.42;;
47617;SDS011;33336;36.728;-4.414;2023-05-07T00:39:39;2.22;;;1.10;;
47617;SDS011;33336;36.728;-4.414;2023-05-07T00:44:43;4.88;;;1.20;;
47617;SDS011;33336;36.728;-4.414;2023-05-07T00:49:47;3.58;;;1.60;;
47617;SDS011;33336;36.728;-4.414;2023-05-07T00:54:50;4.07;;;1.08;;
47617;SDS011;33336;36.728;-4.414;2023-05-07T00:59:56;6.75;;;1.15;;
47617;SDS011;33336;36.728;-4.414;2023-05-07T01:04:59;2.65;;;1.02;;
47617;SDS011;33336;36.728;-4.414;2023-05-07T01:10:05;6.32;;;1.05;;
47617;SDS011;33336;36.728;-4.414;2023-05-07T01:15:10;7.00;;;1.73;;
47617;SDS011;33336;36.728;-4.414;2023-05-07T01:20:17;4.82;;;1.27;;
47617;SDS011;33336;36.728;-4.414;2023-05-07T01:25:22;7.28;;;1.73;;
47617;SDS011;33336;36.728;-4.414;2023-05-07T01:30:26;5.72;;;1.45;;
47617;SDS011;33336;36.728;-4.414;2023-05-07T01:35:30;4.88;;;1.25;;
47617;SDS011;33336;36.728;-4.414;2023-05-07T01:40:40;5.60;;;1.50;;
47617;SDS011;33336;36.728;-4.414;2023-05-07T01:45:43;3.70;;;1.42;;
47617;SDS011;33336;36.728;-4.414;2023-05-07T01:50:51;5.55;;;1.55;;
47617;SDS011;33336;36.728;-4.414;2023-05-07T01:55:55;7.57;;;1.20;;
47617;SDS011;33336;36.728;-4.414;2023-05-07T02:00:59;5.32;;;1.15;;
47617;SDS011;33336;36.728;-4.414;2023-05-07T02:06:02;7.28;;;1.08;;
47617;SDS011;33336;36.728;-4.414;2023-05-07T02:11:08;4.63;;;1.30;;
47617;SDS011;33336;36.728;-4.414;2023-05-07T02:16:10;5.95;;;1.48;;
47617;SDS011;33336;36.728;-4.414;2023-05-07T02:21:15;3.90;;;1.42;;
47617;SDS011;33336;36.728;-4.414;2023-05-07T02:26:20;6.22;;;1.42;;
47617;SDS011;33336;36.728;-4.414;2023-05-07T02:31:24;3.55;;;1.20;;
47617;SDS011;33336;36.728;-4.414;2023-05-07T02:36:27;4.32;;;1.48;;
47617;SDS011;33336;36.728;-4.414;2023-05-07T02:41:37;4.57;;;1.38;;
47617;SDS011;33336;36.728;-4.414;2023-05-07T02:46:40;3.13;;;1.20;;
47617;SDS011;33336;36.728;-4.414;2023-05-07T02:51:44;4.57;;;1.60;;
47617;SDS011;33336;36.728;-4.414;2023-05-07T02:56:48;7.38;;;1.58;;
47617;SDS011;33336;36.728;-4.414;2023-05-07T03:01:52;6.15;;;1.73;;
47617;SDS011;33336;36.728;-4.414;2023-05-07T03:06:55;7.05;;;1.50;;
47617;SDS011;33336;36.728;-4.414;2023-05-07T03:12:00;7.20;;;2.42;;
47617;SDS011;33336;36.728;-4.414;2023-05-07T03:17:03;5.05;;;1.40;;
47617;SDS011;33336;36.728;-4.414;2023-05-07T03:22:06;7.43;;;1.58;;
47617;SDS011;33336;36.728;-4.414;2023-05-07T03:27:10;6.07;;;1.77;;
47617;SDS011;33336;36.728;-4.414;2023-05-07T03:32:14;5.63;;;1.90;;
47617;SDS011;33336;36.728;-4.414;2023-05-07T03:37:17;4.13;;;1.73;;
47617;SDS011;33336;36.728;-4.414;2023-05-07T03:42:22;5.38;;;1.95;;
47617;SDS011;33336;36.728;-4.414;2023-05-07T03:47:25;8.50;;;2.05;;
47617;SDS011;33336;36.728;-4.414;2023-05-07T03:52:29;6.38;;;1.77;;
47617;SDS011;33336;36.728;-4.414;2023-05-07T03:57:34;5.78;;;1.80;;
47617;SDS011;33336;36.728;-4.414;2023-05-07T04:02:38;2.65;;;1.23;;
47617;SDS011;33336;36.728;-4.414;2023-05-07T04:07:40;4.68;;;2.28;;
47617;SDS011;33336;36.728;-4.414;2023-05-07T04:12:46;3.78;;;1.83;;
47617;SDS011;33336;36.728;-4.414;2023-05-07T04:17:48;4.50;;;1.88;;
47617;SDS011;33336;36.728;-4.414;2023-05-07T04:22:53;6.45;;;1.88;;
47617;SDS011;33336;36.728;-4.414;2023-05-07T04:27:57;5.00;;;1.60;;
47617;SDS011;33336;36.728;-4.414;2023-05-07T04:33:01;5.95;;;1.50;;
47617;SDS011;33336;36.728;-4.414;2023-05-07T04:38:04;4.43;;;1.20;;
47617;SDS011;33336;36.728;-4.414;2023-05-07T04:43:09;2.83;;;1.40;;
47617;SDS011;33336;36.728;-4.414;2023-05-07T04:48:12;7.47;;;1.55;;
47617;SDS011;33336;36.728;-4.414;2023-05-07T04:53:17;5.32;;;1.23;;
47617;SDS011;33336;36.728;-4.414;2023-05-07T04:58:23;6.50;;;1.42;;
47617;SDS011;33336;36.728;-4.414;2023-05-07T05:03:27;7.45;;;1.52;;
47617;SDS011;33336;36.728;-4.414;2023-05-07T05:08:30;5.30;;;1.38;;
47617;SDS011;33336;36.728;-4.414;2023-05-07T05:13:36;3.45;;;1.35;;
47617;SDS011;33336;36.728;-4.414;2023-05-07T05:18:38;6.15;;;1.52;;
47617;SDS011;33336;36.728;-4.414;2023-05-07T05:23:41;4.88;;;1.42;;
47617;SDS011;33336;36.728;-4.414;2023-05-07T05:28:45;3.78;;;1.60;;
47617;SDS011;33336;36.728;-4.414;2023-05-07T05:33:50;9.02;;;2.60;;
47617;SDS011;33336;36.728;-4.414;2023-05-07T05:38:53;12.63;;;2.15;;
47617;SDS011;33336;36.728;-4.414;2023-05-07T05:43:58;3.65;;;1.95;;
47617;SDS011;33336;36.728;-4.414;2023-05-07T05:49:01;5.82;;;2.17;;
47617;SDS011;33336;36.728;-4.414;2023-05-07T05:54:04;7.40;;;2.42;;
47617;SDS011;33336;36.728;-4.414;2023-05-07T05:59:09;5.72;;;2.35;;
47617;SDS011;33336;36.728;-4.414;2023-05-07T06:04:13;9.45;;;2.13;;
47617;SDS011;33336;36.728;-4.414;2023-05-07T06:09:16;3.75;;;1.88;;
47617;SDS011;33336;36.728;-4.414;2023-05-07T06:14:21;4.18;;;2.50;;
47617;SDS011;33336;36.728;-4.414;2023-05-07T06:19:24;6.72;;;2.47;;
47617;SDS011;33336;36.728;-4.414;2023-05-07T06:24:30;12.10;;;3.10;;
47617;SDS011;33336;36.728;-4.414;2023-05-07T06:29:34;7.63;;;2.55;;
47617;SDS011;33336;36.728;-4.414;2023-05-07T06:34:38;6.30;;;2.97;;
47617;SDS011;33336;36.728;-4.414;2023-05-07T06:39:41;4.60;;;2.45;;
47617;SDS011;33336;36.728;-4.414;2023-05-07T06:44:46;5.43;;;2.10;;
47617;SDS011;33336;36.728;-4.414;2023-05-07T06:49:49;9.05;;;2.35;;
47617;SDS011;33336;36.728;-4.414;2023-05-07T06:54:53;11.45;;;2.63;;
47617;SDS011;33336;36.728;-4.414;2023-05-07T06:59:57;10.90;;;3.95;;
47617;SDS011;33336;36.728;-4.414;2023-05-07T07:05:01;18.65;;;4.35;;
47617;SDS011;33336;36.728;-4.414;2023-05-07T07:10:04;15.93;;;3.83;;
47617;SDS011;33336;36.728;-4.414;2023-05-07T07:15:11;20.75;;;5.65;;
47617;SDS011;33336;36.728;-4.414;2023-05-07T07:20:14;29.63;;;5.72;;
47617;SDS011;33336;36.728;-4.414;2023-05-07T07:25:17;30.70;;;5.75;;
47617;SDS011;33336;36.728;-4.414;2023-05-07T07:30:21;22.85;;;4.72;;
47617;SDS011;33336;36.728;-4.414;2023-05-07T07:35:25;24.58;;;6.25;;
47617;SDS011;33336;36.728;-4.414;2023-05-07T07:40:28;27.63;;;6.40;;
47617;SDS011;33336;36.728;-4.414;2023-05-07T07:45:32;27.85;;;6.80;;
47617;SDS011;33336;36.728;-4.414;2023-05-07T07:50:36;27.33;;;6.32;;
47617;SDS011;33336;36.728;-4.414;2023-05-07T07:55:39;19.60;;;6.65;;
47617;SDS011;33336;36.728;-4.414;2023-05-07T08:00:43;20.88;;;5.93;;
47617;SDS011;33336;36.728;-4.414;2023-05-07T08:05:48;25.13;;;7.43;;
47617;SDS011;33336;36.728;-4.414;2023-05-07T08:10:51;19.55;;;5.10;;
47617;SDS011;33336;36.728;-4.414;2023-05-07T08:15:56;22.65;;;5.43;;
47617;SDS011;33336;36.728;-4.414;2023-05-07T08:21:00;18.60;;;4.80;;
47617;SDS011;33336;36.728;-4.414;2023-05-07T08:26:03;22.90;;;6.60;;
47617;SDS011;33336;36.728;-4.414;2023-05-07T08:31:07;20.55;;;5.18;;
47617;SDS011;33336;36.728;-4.414;2023-05-07T08:36:10;17.40;;;5.55;;
47617;SDS011;33336;36.728;-4.414;2023-05-07T08:41:13;21.52;;;4.68;;
47617;SDS011;33336;36.728;-4.414;2023-05-07T08:46:18;26.45;;;5.47;;
47617;SDS011;33336;36.728;-4.414;2023-05-07T08:51:22;28.67;;;5.75;;
47617;SDS011;33336;36.728;-4.414;2023-05-07T08:56:26;17.30;;;6.78;;
47617;SDS011;33336;36.728;-4.414;2023-05-07T09:01:30;24.38;;;5.25;;
47617;SDS011;33336;36.728;-4.414;2023-05-07T09:06:34;22.35;;;5.63;;
47617;SDS011;33336;36.728;-4.414;2023-05-07T09:11:38;22.05;;;5.90;;
47617;SDS011;33336;36.728;-4.414;2023-05-07T09:16:43;24.45;;;5.80;;
47617;SDS011;33336;36.728;-4.414;2023-05-07T09:21:48;19.13;;;5.22;;
47617;SDS011;33336;36.728;-4.414;2023-05-07T09:26:51;24.02;;;5.80;;
47617;SDS011;33336;36.728;-4.414;2023-05-07T09:31:55;22.83;;;5.43;;
47617;SDS011;33336;36.728;-4.414;2023-05-07T09:36:58;17.75;;;5.43;;
47617;SDS011;33336;36.728;-4.414;2023-05-07T09:42:02;27.25;;;6.43;;
47617;SDS011;33336;36.728;-4.414;2023-05-07T09:47:07;20.65;;;6.10;;
47617;SDS011;33336;36.728;-4.414;2023-05-07T09:52:12;24.87;;;6.43;;
47617;SDS011;33336;36.728;-4.414;2023-05-07T09:57:16;22.63;;;5.07;;
47617;SDS011;33336;36.728;-4.414;2023-05-07T10:02:22;21.02;;;5.18;;
47617;SDS011;33336;36.728;-4.414;2023-05-07T10:07:28;20.03;;;5.27;;
47617;SDS011;33336;36.728;-4.414;2023-05-07T10:12:31;29.90;;;7.93;;
47617;SDS011;33336;36.728;-4.414;2023-05-07T10:17:41;23.55;;;6.70;;
47617;SDS011;33336;36.728;-4.414;2023-05-07T10:22:45;32.65;;;8.77;;
47617;SDS011;33336;36.728;-4.414;2023-05-07T10:27:50;28.27;;;8.07;;
47617;SDS011;33336;36.728;-4.414;2023-05-07T10:32:56;26.30;;;7.38;;
47617;SDS011;33336;36.728;-4.414;2023-05-07T10:38:07;40.08;;;9.07;;
47617;SDS011;33336;36.728;-4.414;2023-05-07T10:43:11;33.45;;;10.07;;
47617;SDS011;33336;36.728;-4.414;2023-05-07T10:48:16;27.48;;;8.48;;
47617;SDS011;33336;36.728;-4.414;2023-05-07T10:53:23;22.83;;;6.88;;
47617;SDS011;33336;36.728;-4.414;2023-05-07T10:58:28;19.55;;;6.55;;
47617;SDS011;33336;36.728;-4.414;2023-05-07T11:03:33;26.20;;;7.30;;
47617;SDS011;33336;36.728;-4.414;2023-05-07T11:14:00;18.60;;;4.72;;
47617;SDS011;33336;36.728;-4.414;2023-05-07T11:19:05;16.25;;;4.22;;
47617;SDS011;33336;36.728;-4.414;2023-05-07T11:24:08;19.77;;;5.65;;
47617;SDS011;33336;36.728;-4.414;2023-05-07T11:29:14;16.60;;;5.15;;
47617;SDS011;33336;36.728;-4.414;2023-05-07T11:34:21;15.45;;;4.93;;
47617;SDS011;33336;36.728;-4.414;2023-05-07T11:39:26;16.92;;;4.85;;
47617;SDS011;33336;36.728;-4.414;2023-05-07T11:44:41;12.75;;;4.57;;
47617;SDS011;33336;36.728;-4.414;2023-05-07T11:49:49;16.73;;;4.22;;
47617;SDS011;33336;36.728;-4.414;2023-05-07T11:54:53;14.38;;;3.55;;
47617;SDS011;33336;36.728;-4.414;2023-05-07T11:59:58;14.38;;;3.67;;
47617;SDS011;33336;36.728;-4.414;2023-05-07T12:05:04;13.07;;;3.53;;
47617;SDS011;33336;36.728;-4.414;2023-05-07T12:10:08;5.75;;;2.42;;
47617;SDS011;33336;36.728;-4.414;2023-05-07T12:15:15;11.48;;;3.10;;
47617;SDS011;33336;36.728;-4.414;2023-05-07T12:20:20;14.68;;;2.58;;
47617;SDS011;33336;36.728;-4.414;2023-05-07T12:25:23;9.57;;;3.17;;
47617;SDS011;33336;36.728;-4.414;2023-05-07T12:30:27;8.73;;;2.80;;
47617;SDS011;33336;36.728;-4.414;2023-05-07T12:35:32;11.35;;;3.95;;
47617;SDS011;33336;36.728;-4.414;2023-05-07T12:40:40;6.70;;;2.40;;
47617;SDS011;33336;36.728;-4.414;2023-05-07T12:45:45;5.97;;;2.55;;
47617;SDS011;33336;36.728;-4.414;2023-05-07T12:50:51;5.72;;;2.47;;
47617;SDS011;33336;36.728;-4.414;2023-05-07T12:55:56;6.32;;;2.55;;
47617;SDS011;33336;36.728;-4.414;2023-05-07T13:01:00;8.10;;;2.55;;
47617;SDS011;33336;36.728;-4.414;2023-05-07T13:11:13;11.98;;;2.60;;
47617;SDS011;33336;36.728;-4.414;2023-05-07T13:16:16;9.65;;;2.92;;
47617;SDS011;33336;36.728;-4.414;2023-05-07T13:21:20;7.82;;;2.42;;
47617;SDS011;33336;36.728;-4.414;2023-05-07T13:26:23;6.63;;;2.30;;
47617;SDS011;33336;36.728;-4.414;2023-05-07T13:31:27;7.70;;;2.38;;
47617;SDS011;33336;36.728;-4.414;2023-05-07T13:36:31;5.18;;;1.80;;
47617;SDS011;33336;36.728;-4.414;2023-05-07T13:41:38;5.20;;;1.90;;
47617;SDS011;33336;36.728;-4.414;2023-05-07T13:46:41;8.95;;;2.30;;
47617;SDS011;33336;36.728;-4.414;2023-05-07T13:51:46;3.03;;;1.48;;
47617;SDS011;33336;36.728;-4.414;2023-05-07T13:56:49;4.67;;;1.57;;
47617;SDS011;33336;36.728;-4.414;2023-05-07T14:01:53;5.47;;;1.77;;
47617;SDS011;33336;36.728;-4.414;2023-05-07T14:06:57;5.72;;;1.85;;
47617;SDS011;33336;36.728;-4.414;2023-05-07T14:12:01;9.73;;;2.40;;
47617;SDS011;33336;36.728;-4.414;2023-05-07T14:17:03;5.47;;;1.88;;
47617;SDS011;33336;36.728;-4.414;2023-05-07T14:22:08;6.35;;;2.05;;
47617;SDS011;33336;36.728;-4.414;2023-05-07T14:27:11;10.20;;;3.00;;
47617;SDS011;33336;36.728;-4.414;2023-05-07T14:32:15;9.90;;;3.25;;
47617;SDS011;33336;36.728;-4.414;2023-05-07T14:37:19;9.00;;;2.47;;
47617;SDS011;33336;36.728;-4.414;2023-05-07T14:42:22;9.55;;;2.47;;
47617;SDS011;33336;36.728;-4.414;2023-05-07T14:47:25;7.55;;;1.92;;
47617;SDS011;33336;36.728;-4.414;2023-05-07T14:52:29;4.57;;;1.52;;
47617;SDS011;33336;36.728;-4.414;2023-05-07T14:57:32;7.35;;;2.60;;
47617;SDS011;33336;36.728;-4.414;2023-05-07T15:02:36;7.97;;;2.95;;
47617;SDS011;33336;36.728;-4.414;2023-05-07T15:07:40;8.57;;;2.78;;
47617;SDS011;33336;36.728;-4.414;2023-05-07T15:12:44;8.52;;;2.50;;
47617;SDS011;33336;36.728;-4.414;2023-05-07T15:17:46;10.77;;;2.72;;
47617;SDS011;33336;36.728;-4.414;2023-05-07T15:22:51;9.18;;;2.90;;
47617;SDS011;33336;36.728;-4.414;2023-05-07T15:27:54;10.88;;;3.47;;
47617;SDS011;33336;36.728;-4.414;2023-05-07T15:32:58;8.95;;;3.25;;
47617;SDS011;33336;36.728;-4.414;2023-05-07T15:38:02;8.38;;;2.85;;
47617;SDS011;33336;36.728;-4.414;2023-05-07T15:43:06;10.90;;;3.00;;
47617;SDS011;33336;36.728;-4.414;2023-05-07T15:48:09;10.68;;;3.17;;
47617;SDS011;33336;36.728;-4.414;2023-05-07T15:53:14;7.78;;;2.40;;
47617;SDS011;33336;36.728;-4.414;2023-05-07T15:58:17;7.05;;;2.03;;
47617;SDS011;33336;36.728;-4.414;2023-05-07T16:03:21;7.32;;;2.10;;
47617;SDS011;33336;36.728;-4.414;2023-05-07T16:08:26;5.72;;;2.03;;
47617;SDS011;33336;36.728;-4.414;2023-05-07T16:13:31;6.93;;;2.00;;
47617;SDS011;33336;36.728;-4.414;2023-05-07T16:18:33;9.32;;;3.55;;
47617;SDS011;33336;36.728;-4.414;2023-05-07T16:23:38;7.57;;;2.38;;
47617;SDS011;33336;36.728;-4.414;2023-05-07T16:33:44;3.75;;;2.13;;
47617;SDS011;33336;36.728;-4.414;2023-05-07T16:38:48;8.18;;;2.42;;
47617;SDS011;33336;36.728;-4.414;2023-05-07T16:43:52;10.57;;;3.58;;
47617;SDS011;33336;36.728;-4.414;2023-05-07T16:48:55;10.30;;;2.50;;
47617;SDS011;33336;36.728;-4.414;2023-05-07T16:54:01;6.57;;;2.42;;
47617;SDS011;33336;36.728;-4.414;2023-05-07T16:59:03;6.40;;;2.25;;
47617;SDS011;33336;36.728;-4.414;2023-05-07T17:04:07;9.07;;;2.60;;
47617;SDS011;33336;36.728;-4.414;2023-05-07T17:09:11;12.70;;;2.72;;
47617;SDS011;33336;36.728;-4.414;2023-05-07T17:14:14;11.30;;;2.65;;
47617;SDS011;33336;36.728;-4.414;2023-05-07T17:19:16;11.88;;;3.60;;
47617;SDS011;33336;36.728;-4.414;2023-05-07T17:24:21;7.18;;;2.90;;
47617;SDS011;33336;36.728;-4.414;2023-05-07T17:29:24;7.73;;;2.73;;
47617;SDS011;33336;36.728;-4.414;2023-05-07T17:34:28;11.60;;;3.63;;
47617;SDS011;33336;36.728;-4.414;2023-05-07T17:39:33;13.93;;;3.45;;
47617;SDS011;33336;36.728;-4.414;2023-05-07T17:44:37;14.20;;;3.53;;
47617;SDS011;33336;36.728;-4.414;2023-05-07T17:49:40;19.58;;;4.00;;
47617;SDS011;33336;36.728;-4.414;2023-05-07T17:54:45;11.88;;;3.28;;
47617;SDS011;33336;36.728;-4.414;2023-05-07T17:59:48;16.67;;;4.77;;
47617;SDS011;33336;36.728;-4.414;2023-05-07T18:04:52;11.45;;;3.53;;
47617;SDS011;33336;36.728;-4.414;2023-05-07T18:09:56;10.82;;;3.50;;
47617;SDS011;33336;36.728;-4.414;2023-05-07T18:15:00;15.55;;;4.15;;
47617;SDS011;33336;36.728;-4.414;2023-05-07T18:20:03;15.13;;;3.83;;
47617;SDS011;33336;36.728;-4.414;2023-05-07T18:25:10;12.95;;;4.05;;
47617;SDS011;33336;36.728;-4.414;2023-05-07T18:30:13;15.45;;;4.65;;
47617;SDS011;33336;36.728;-4.414;2023-05-07T18:35:17;17.33;;;4.90;;
47617;SDS011;33336;36.728;-4.414;2023-05-07T18:40:21;23.77;;;5.00;;
47617;SDS011;33336;36.728;-4.414;2023-05-07T18:45:25;16.10;;;4.82;;
47617;SDS011;33336;36.728;-4.414;2023-05-07T18:50:28;12.43;;;3.35;;
47617;SDS011;33336;36.728;-4.414;2023-05-07T18:55:33;14.32;;;4.35;;
47617;SDS011;33336;36.728;-4.414;2023-05-07T19:00:39;14.88;;;4.22;;
47617;SDS011;33336;36.728;-4.414;2023-05-07T19:05:45;16.63;;;4.15;;
47617;SDS011;33336;36.728;-4.414;2023-05-07T19:10:49;21.45;;;4.28;;
47617;SDS011;33336;36.728;-4.414;2023-05-07T19:15:53;19.42;;;4.13;;
47617;SDS011;33336;36.728;-4.414;2023-05-07T19:20:56;12.48;;;4.00;;
47617;SDS011;33336;36.728;-4.414;2023-05-07T19:26:01;14.25;;;4.38;;
47617;SDS011;33336;36.728;-4.414;2023-05-07T19:31:04;12.48;;;4.03;;
47617;SDS011;33336;36.728;-4.414;2023-05-07T19:36:07;13.77;;;4.07;;
47617;SDS011;33336;36.728;-4.414;2023-05-07T19:41:12;25.42;;;5.13;;
47617;SDS011;33336;36.728;-4.414;2023-05-07T19:46:16;11.43;;;4.28;;
47617;SDS011;33336;36.728;-4.414;2023-05-07T19:51:19;16.90;;;4.13;;
47617;SDS011;33336;36.728;-4.414;2023-05-07T19:56:29;11.45;;;3.58;;
47617;SDS011;33336;36.728;-4.414;2023-05-07T20:01:35;12.50;;;3.55;;
47617;SDS011;33336;36.728;-4.414;2023-05-07T20:06:41;16.20;;;4.47;;
47617;SDS011;33336;36.728;-4.414;2023-05-07T20:11:45;10.55;;;3.92;;
47617;SDS011;33336;36.728;-4.414;2023-05-07T20:16:55;21.38;;;4.30;;
47617;SDS011;33336;36.728;-4.414;2023-05-07T20:21:58;19.85;;;5.20;;
47617;SDS011;33336;36.728;-4.414;2023-05-07T20:27:06;14.47;;;5.33;;
47617;SDS011;33336;36.728;-4.414;2023-05-07T20:32:10;23.67;;;6.00;;
47617;SDS011;33336;36.728;-4.414;2023-05-07T20:37:14;17.95;;;5.50;;
47617;SDS011;33336;36.728;-4.414;2023-05-07T20:42:18;14.90;;;5.45;;
47617;SDS011;33336;36.728;-4.414;2023-05-07T20:47:31;19.85;;;5.15;;
47617;SDS011;33336;36.728;-4.414;2023-05-07T20:52:36;23.60;;;6.07;;
47617;SDS011;33336;36.728;-4.414;2023-05-07T20:57:41;17.20;;;6.32;;
47617;SDS011;33336;36.728;-4.414;2023-05-07T21:02:44;22.58;;;6.10;;
47617;SDS011;33336;36.728;-4.414;2023-05-07T21:07:47;25.25;;;7.22;;
47617;SDS011;33336;36.728;-4.414;2023-05-07T21:12:51;29.33;;;6.80;;
47617;SDS011;33336;36.728;-4.414;2023-05-07T21:17:57;25.55;;;7.35;;
47617;SDS011;33336;36.728;-4.414;2023-05-07T21:28:26;29.02;;;8.60;;
47617;SDS011;33336;36.728;-4.414;2023-05-07T21:33:29;26.20;;;7.80;;
47617;SDS011;33336;36.728;-4.414;2023-05-07T21:38:33;30.08;;;8.73;;
47617;SDS011;33336;36.728;-4.414;2023-05-07T21:43:37;30.83;;;7.80;;
47617;SDS011;33336;36.728;-4.414;2023-05-07T21:54:10;26.48;;;7.75;;
47617;SDS011;33336;36.728;-4.414;2023-05-07T21:59:15;29.73;;;9.18;;
47617;SDS011;33336;36.728;-4.414;2023-05-07T22:04:18;28.17;;;9.80;;
47617;SDS011;33336;36.728;-4.414;2023-05-07T22:09:22;28.17;;;9.68;;
47617;SDS011;33336;36.728;-4.414;2023-05-07T22:14:26;26.48;;;9.98;;
47617;SDS011;33336;36.728;-4.414;2023-05-07T22:19:30;36.45;;;9.77;;
47617;SDS011;33336;36.728;-4.414;2023-05-07T22:24:32;28.33;;;7.40;;
47617;SDS011;33336;36.728;-4.414;2023-05-07T22:29:37;32.00;;;9.18;;
47617;SDS011;33336;36.728;-4.414;2023-05-07T22:34:40;24.92;;;9.95;;
47617;SDS011;33336;36.728;-4.414;2023-05-07T22:39:44;33.28;;;9.45;;
47617;SDS011;33336;36.728;-4.414;2023-05-07T22:44:48;30.10;;;9.18;;
47617;SDS011;33336;36.728;-4.414;2023-05-07T22:49:54;27.03;;;8.80;;
47617;SDS011;33336;36.728;-4.414;2023-05-07T22:54:56;30.30;;;8.55;;
47617;SDS011;33336;36.728;-4.414;2023-05-07T23:00:01;30.60;;;7.85;;
47617;SDS011;33336;36.728;-4.414;2023-05-07T23:05:04;31.20;;;6.95;;
47617;SDS011;33336;36.728;-4.414;2023-05-07T23:10:08;25.85;;;7.47;;
47617;SDS011;33336;36.728;-4.414;2023-05-07T23:15:12;27.02;;;7.65;;
47617;SDS011;33336;36.728;-4.414;2023-05-07T23:20:16;23.30;;;6.85;;
47617;SDS011;33336;36.728;-4.414;2023-05-07T23:25:18;20.83;;;6.70;;
47617;SDS011;33336;36.728;-4.414;2023-05-07T23:30:23;33.60;;;8.15;;
47617;SDS011;33336;36.728;-4.414;2023-05-07T23:35:26;29.25;;;7.57;;
47617;SDS011;33336;36.728;-4.414;2023-05-07T23:40:30;29.85;;;8.52;;
47617;SDS011;33336;36.728;-4.414;2023-05-07T23:45:34;32.63;;;9.50;;
47617;SDS011;33336;36.728;-4.414;2023-05-07T23:50:37;29.83;;;6.82;;
47617;SDS011;33336;36.728;-4.414;2023-05-07T23:55:40;22.25;;;6.40;;
